Timeline UpdatesTrip UpdatesNews PostsPvt PostsTravel TipsAdmin PostsConv PostsFollowed PostsChat RequestsBlog PostsPNR Posts

Disclaimer
Search
 
 
Wed Jul 30, 2014 06:28:45 ISTHomeTrainsΣChainsAtlasPNRForumGalleryNewsFAQTripsMembersLoginFeedback
No Recent News for this Train
Other Trains in the News **new
Latest...
⇐ Return Journey: Train# 59705

59706/Jaipur Jn-Suratgarh Jn Passenger (UnReserved)

Sep 28 2013 (6:10PM)
Change Departure Station:
Change Arrival Station:
Post a Train Travel TipPost a Train Travel Tip **new
Post a Comment/Question/Picture/VideoPost a Comment/Question/Picture/Video
Pantry/Catering
✕ NO Pantry Car
✕ NO Catering
Loco/Rake Reversals
MTD/Merta Road Junction (4);
RSA - Rake Sharing
Rake/Coach Composition
Loco
News    PNR    Forum    Time-Table    Availability    Fare Chart    Map    Arr/Dep History    Trips    Gallery    ΣChains    X/O    Timeline    
Travel Time: 1h 28m    7 halts    Distance: 62 km    Avg Speed: 42 km/hr
Type: Passenger
Zone: NWR/North Western
Departs @ 05:00 (Avg on time)
Platform# 5
SMTWTFS
Jaipur Junction/JP 
Arrives @ 06:28 (Avg 12m late)
Platform# ???
SMTWTFS
Sambhar Lake/SBR 

7 halts. 9 intermediate Stations between Jaipur Junction and Sambhar Lake

Show ALL intermediate Stations  Show Old Time-Table

#CodeStation NameX/OArrivesAvgDepartsAvgHaltPFDay#KmSpeedElevZoneAddress
1JP»Jaipur Junction (7)»  -05:00+0510.053434mNWRJaipur, Rajasthan
2KKUKanakpura  05:10+605:11+61m--18.958429mNWRJaipur, Rajasthan
3DNKDhanakya  05:21+605:22+61m--118.664418mNWRJaipur, Rajasthan
4BOBSBobas  05:32+505:33+51m--129.356396mNWRJaipur, Rajasthan
5JOBAsalpur JobnerX  05:41+505:42+51m--136.748379mNWRJaipur, Rajasthan
6DHNDDhindaX  05:49+305:50+31m--142.440386mNWRMDR 59, Rajasthan
7HDAHirnoda  05:56+305:57+31m--146.429400mNWRJaipur, Rajasthan
8FLPhulera Junction (5)  06:15-106:20+05m--155.154386mNWRPhulera, Rajasthan
9SBR•Sambhar Lake•  06:28+1206:29+121m--162.251368mNWRSambhar, Rajasthan
10GAGudha (1)  06:38+1306:40+162m1169.971365mNWRPhulera, Rajasthan
11GVMRGovindi MarwarX  06:49+1706:51+172m--180.669373mNWRSambhar Lake, Rajasthan
12NACNawa City  06:59+1907:01+202m--189.844390mNWRNawa, Rajasthan
13NYKNaya Kharadia  07:10+2007:11+281m--196.443375mNWRMakrana, Rajasthan
14THMRThathana Mithri  07:17+2607:18+261m--1100.757388mNWRNawa City, Rajasthan
15KMNCKuchaman CityO  07:23+2907:25+392m--1105.527404mNWRPalari, Rajasthan
16MKNMakrana Junction (2)  07:57+2207:59+232m--1119.734423mNWRMakrana, Rajasthan
17BOWBorawar  08:08+2208:10+252m--1124.879403mNWRBesrol, Rajasthan
18BSRLBesroliX  08:19+2508:21+322m--1136.768378mNWRNagaur, Rajasthan
19GCHGachhipuraX  08:31+3308:33+362m--1148.060362mNWRNagaur, Rajasthan
20DNADegana Junction (4)  08:48+3408:51+383m--1163.163339mNWRDegana, Rajasthan
21JACNJalsu Nanak  08:58+3108:59+311m--1170.456331mNWRREN, Rajasthan
22JACJalsuX  09:05+3909:07+482m--1176.068321mNWRNagaur, Rajasthan
23RENRen  09:19+4809:21+482m--1189.715307mNWRNagaur, Rajasthan
24KQWKheduli (1)  09:29+4909:31+502m--1191.766307mNWRRen, Rajasthan
25MTDMerta Road Junction (4)X09:45+4210:05+5120m--1207.141322mNWRPhalodi, Rajasthan
26MCPEMarwar Chapri  10:15+1:0310:17+1:032m--1213.958317mNWRKheduli, Rajasthan
27DSLDeswal  10:25+4810:27+482m--1221.760325mNWRNagaur, Rajasthan
28KJWKhajwana  10:36+1:0310:38+1:022m--1230.767329mNWRKhajwana, Rajasthan
29MDWMarwar Mundwa  10:52+1:0310:54+1:082m--1246.497334mNWRMundwa, Rajasthan
30NGONagaurX  11:05+5911:07+1:012m--1264.149299mNWRNagaur, Rajasthan
31BWSBadwasi  11:25+1:0911:27+1:092m--1278.762276mNWRMDR 69, Rajasthan
32ALAIAlaiX  11:35+1:0911:37+1:102m--1286.969289mNWRAlai, Rajasthan
33SBLJShri Balaji  11:47+5511:49+552m--1298.542296mNWRNational Highway 89, Rajasthan
34CLOChilo  11:54+1:1011:56+1:092m--1302.069304mNWRNational Highway 89, Rajasthan
35NOKGarhnokhaX  12:08+1:1012:10+1:092m--1315.76997mNWRNokha, Rajasthan
36SPOSurpura  12:25+1:0812:27+1:072m--1333.069286mNWRBikaner, Rajasthan
37DSODeshnoke (1)  12:40+1:0712:42+1:072m11347.956274mNWRDeshnok, Rajasthan
38PAEPalana  12:52+1:0712:54+1:062m--1357.212263mNWRBikaner, Rajasthan
39UMSUdramsar  13:40+3513:42+352m--1366.014241mNWRBikaner, Rajasthan
40BKNBikaner Junction (6)  14:40+2315:00+2320m--1379.824226mNWRBikaner City, Rajasthan
41LGHLalgarh JunctionX  15:10+1915:12+232m--1383.756225mNWRBikaner, Rajasthan
42KNSRKanasar  15:25+2515:27+252m--1395.973209mNWRLalgarh, Rajasthan
43JMSJamsar  15:40+2415:42+242m--1411.657186mNWRBikaner, Rajasthan
44JDLJagdevwala  15:54+2515:56+262m--1422.945186mNWRNational Highway 15, Rajasthan
45BMNLBaman Wali HaltX  16:05+1616:06+161m--1429.665193mNWRBaman Wali, Rajasthan
46DHRRDhirera  16:13+2516:15+252m--1437.263190mNWRBikaner, Rajasthan
47DLCDalmera  16:24+2516:26+262m--1446.666203mNWRBikaner, Rajasthan
48LKSLunkaransar  16:38+2616:40+262m--1459.871194mNWRLunkaransar, Rajasthan
49NTZNathwana  16:50+2616:52+262m--1471.658197mNWRMalkisar, Rajasthan
50MLCMalkisar  17:02+2617:04+272m--1481.471198mNWRBikaner, Rajasthan
51MHJMahajan  17:19+2717:21+272m--1499.269199mNWRMahajan, Rajasthan
52ASArjansar  17:35+2717:37+272m--1515.366205mNWRBikaner, Rajasthan
53RJSRajiyasar  17:51+2517:53+252m--1530.862193mNWRBiradhwal, Rajasthan
54BDWLBiradhwal  18:06+2518:08+242m--1544.320189mNWRNational Highway 15, Rajasthan
55SOGSuratgarh Junction (5)  19:00+3---1561.8-170mNWRSuratgarh, Rajasthan
Scroll to Top
Scroll to Bottom